Time;durP1;ratioP1;P1;durP2;ratioP2;P2;SDS_P1;SDS_P2;PMS_P1;PMS_P2;Temp;Humidity;BMP_temperature;BMP_pressure;BME280_temperature;BME280_humidity;BME280_pressure;Samples;Min_cycle;Max_cycle;Signal;HPM_P1;HPM_P2
2022/06/11 00:02:57;;;;;;;8.98;4.65;;;;;;;11.97;68.43;100777.14;2200855;80;21062;-79
2022/06/11 00:05:59;;;;;;;16.42;5.12;;;;;;;11.98;68.22;100772.15;2200211;80;20995;-80
2022/06/11 00:09:00;;;;;;;10.45;6.15;;;;;;;11.94;68.35;100772.62;2187566;80;20977;-80
2022/06/11 00:12:02;;;;;;;12.40;5.40;;;;;;;11.91;68.69;100773.80;2201101;80;21007;-80
2022/06/11 00:15:06;;;;;;;13.45;4.55;;;;;;;11.89;68.65;100781.09;2200924;80;20990;-81
2022/06/11 00:18:07;;;;;;;15.00;5.28;;;;;;;11.86;68.43;100785.40;2198220;80;20987;-81
2022/06/11 00:21:11;;;;;;;23.65;5.67;;;;;;;11.86;68.83;100783.57;2197401;80;21576;-79
2022/06/11 00:24:13;;;;;;;17.42;4.87;;;;;;;11.82;68.49;100781.34;2197434;80;21652;-79
2022/06/11 00:27:15;;;;;;;13.22;5.12;;;;;;;11.78;68.52;100778.68;2195896;80;20950;-82
2022/06/11 00:30:19;;;;;;;10.10;5.55;;;;;;;11.74;68.73;100779.97;2192858;80;21027;-83
2022/06/11 00:33:20;;;;;;;16.27;6.37;;;;;;;11.71;69.06;100786.44;2199446;80;21046;-81
2022/06/11 00:36:22;;;;;;;12.80;5.60;;;;;;;11.67;69.47;100787.25;2201600;80;21065;-80
2022/06/11 00:39:28;;;;;;;12.53;5.60;;;;;;;11.61;69.12;100787.89;2201504;80;20983;-82
2022/06/11 00:42:33;;;;;;;13.38;6.55;;;;;;;11.54;69.22;100787.33;2199974;80;21570;-81
2022/06/11 00:45:51;;;;;;;16.05;7.95;;;;;;;11.51;69.28;100785.82;2199183;80;20980;-81
2022/06/11 00:48:53;;;;;;;17.85;6.40;;;;;;;11.47;70.29;100795.11;2155934;80;21028;-82
2022/06/11 00:52:14;;;;;;;20.25;6.72;;;;;;;11.38;70.25;100790.23;2193714;80;20975;-82
2022/06/11 00:55:32;;;;;;;22.70;7.20;;;;;;;11.35;70.09;100793.20;2189077;79;21053;-79
2022/06/11 00:58:38;;;;;;;18.05;6.55;;;;;;;11.26;69.66;100782.66;2189850;80;21003;-79
2022/06/11 01:01:40;;;;;;;11.45;6.22;;;;;;;11.22;69.94;100785.63;2189402;80;21024;-79
2022/06/11 01:04:53;;;;;;;16.37;6.60;;;;;;;11.16;70.07;100782.27;2187963;79;21441;-81
2022/06/11 01:08:36;;;;;;;11.40;6.37;;;;;;;11.16;70.03;100786.25;2188980;80;21580;-81
2022/06/11 01:12:19;;;;;;;10.53;6.22;;;;;;;11.11;70.10;100790.36;2189988;80;21047;-81
2022/06/11 01:15:41;;;;;;;10.85;6.20;;;;;;;11.02;71.35;100794.77;2185024;80;21063;-79
2022/06/11 01:18:53;;;;;;;17.48;6.78;;;;;;;11.02;71.35;100794.77;2183515;80;21003;-81
2022/06/11 01:22:15;;;;;;;20.02;7.65;;;;;;;11.00;71.08;100792.25;2187451;80;21059;-78
2022/06/11 01:25:58;;;;;;;26.87;6.72;;;;;;;10.86;71.41;100785.33;2187776;79;21021;-81
2022/06/11 01:29:50;;;;;;;12.47;6.47;;;;;;;10.86;71.41;100785.33;2188518;80;21308;-79
2022/06/11 01:33:03;;;;;;;10.28;7.08;;;;;;;10.94;71.45;100802.66;2189123;80;21027;-79
2022/06/11 01:36:18;;;;;;;13.90;6.17;;;;;;;10.89;71.32;100799.13;2190394;80;20998;-82
2022/06/11 01:39:43;;;;;;;18.48;6.40;;;;;;;10.82;71.50;100783.98;2190014;80;21071;-79
2022/06/11 01:42:58;;;;;;;10.85;6.42;;;;;;;10.88;71.68;100797.97;2185589;80;20963;-82
2022/06/11 01:46:05;;;;;;;21.57;6.40;;;;;;;10.69;71.52;100777.20;2186555;80;20971;-80
2022/06/11 01:49:27;;;;;;;18.60;7.35;;;;;;;10.69;71.52;100777.20;2184854;80;21126;-80
2022/06/11 01:52:48;;;;;;;11.05;6.62;;;;;;;10.79;71.31;100794.91;2194386;80;21093;-79
2022/06/11 01:56:04;;;;;;;10.78;6.90;;;;;;;10.70;71.88;100784.20;2188646;80;20990;-81
2022/06/11 01:59:28;;;;;;;20.75;6.37;;;;;;;10.65;72.07;100790.45;2188011;80;21066;-79
2022/06/11 02:02:56;;;;;;;13.98;5.67;;;;;;;10.63;71.70;100788.43;2184780;80;20997;-78
2022/06/11 02:06:27;;;;;;;18.85;5.17;;;;;;;10.62;71.75;100792.58;2188363;80;21706;-79
2022/06/11 02:09:52;;;;;;;10.13;5.17;;;;;;;10.57;71.70;100782.41;2186704;80;21004;-78
2022/06/11 02:13:17;;;;;;;10.85;5.55;;;;;;;10.55;71.91;100793.66;2188181;80;21010;-79
2022/06/11 02:16:30;;;;;;;13.78;5.95;;;;;;;10.50;72.34;100790.61;2190483;80;21116;-78
2022/06/11 02:19:39;;;;;;;15.40;6.65;;;;;;;10.44;72.17;100793.87;2186182;80;21024;-78
2022/06/11 02:22:48;;;;;;;12.88;6.25;;;;;;;10.40;72.70;100792.52;2180812;80;21064;-78
2022/06/11 02:25:54;;;;;;;10.98;6.00;;;;;;;10.35;72.72;100798.75;2184976;80;21035;-79
2022/06/11 02:28:58;;;;;;;7.33;5.20;;;;;;;10.22;73.06;100802.56;2184501;80;21059;-81
2022/06/11 02:32:10;;;;;;;10.98;6.00;;;;;;;10.20;73.11;100801.87;2188624;80;21009;-82
2022/06/11 02:35:17;;;;;;;11.15;5.78;;;;;;;10.21;73.19;100802.20;2184338;80;21026;-81
2022/06/11 02:38:23;;;;;;;14.83;7.25;;;;;;;10.21;73.44;100806.67;2185480;80;21034;-79
2022/06/11 02:41:30;;;;;;;19.92;7.47;;;;;;;10.20;73.74;100800.55;2190865;80;21323;-79
2022/06/11 02:44:31;;;;;;;12.82;6.30;;;;;;;10.18;73.77;100802.50;2186705;80;21024;-81
2022/06/11 02:47:32;;;;;;;9.58;5.55;;;;;;;10.16;73.66;100808.44;2187858;80;21551;-78
2022/06/11 02:50:36;;;;;;;14.10;5.92;;;;;;;10.19;73.70;100810.82;2187173;80;21081;-80
2022/06/11 02:53:37;;;;;;;14.53;6.72;;;;;;;10.17;73.31;100815.42;2183631;80;21011;-78
2022/06/11 02:56:39;;;;;;;9.45;5.75;;;;;;;10.17;73.57;100820.73;2190820;80;20969;-80
2022/06/11 02:59:43;;;;;;;11.10;5.72;;;;;;;10.22;73.61;100821.13;2190556;80;20987;-81
2022/06/11 03:02:48;;;;;;;9.20;5.25;;;;;;;10.22;73.74;100823.78;2189875;80;20999;-79
2022/06/11 03:05:48;;;;;;;7.75;5.03;;;;;;;10.24;73.79;100821.80;2190616;80;21004;-79
2022/06/11 03:08:49;;;;;;;17.95;7.10;;;;;;;10.29;73.58;100827.53;2188756;80;21052;-78
2022/06/11 03:11:51;;;;;;;10.82;5.85;;;;;;;10.34;73.58;100825.77;2186785;80;21027;-80
2022/06/11 03:14:52;;;;;;;16.93;5.12;;;;;;;10.44;73.74;100826.53;2186224;80;21022;-80
2022/06/11 03:17:55;;;;;;;23.30;6.87;;;;;;;10.56;73.52;100827.19;2188373;80;20993;-77
2022/06/11 03:20:57;;;;;;;9.70;4.97;;;;;;;10.66;73.57;100827.94;2181789;80;20996;-83
2022/06/11 03:23:58;;;;;;;10.75;5.87;;;;;;;10.75;73.81;100824.38;2183406;80;21465;-80
2022/06/11 03:26:59;;;;;;;8.05;5.40;;;;;;;10.87;74.10;100823.69;2184638;80;20996;-79
2022/06/11 03:30:01;;;;;;;10.43;5.97;;;;;;;11.11;74.00;100820.90;2188525;80;21014;-79
2022/06/11 03:33:03;;;;;;;11.43;5.47;;;;;;;11.50;74.01;100821.87;2192976;80;21712;-81
2022/06/11 03:36:09;;;;;;;9.30;5.62;;;;;;;11.88;73.96;100828.59;2187374;80;21003;-81
2022/06/11 03:39:12;;;;;;;6.55;5.30;;;;;;;12.32;73.70;100828.48;2185605;80;21007;-78
2022/06/11 03:42:13;;;;;;;8.85;5.03;;;;;;;12.74;73.29;100824.94;2185817;80;20993;-81
2022/06/11 03:45:15;;;;;;;13.53;5.78;;;;;;;13.19;72.87;100827.65;2187197;80;21535;-81
2022/06/11 03:48:17;;;;;;;7.70;5.10;;;;;;;13.65;72.62;100827.97;2190877;80;21080;-79
2022/06/11 03:51:19;;;;;;;6.75;5.80;;;;;;;14.16;72.04;100824.48;2185017;80;21079;-82
2022/06/11 03:54:21;;;;;;;10.55;5.87;;;;;;;14.57;71.40;100833.17;2181992;80;20995;-80
2022/06/11 03:57:23;;;;;;;7.58;5.08;;;;;;;14.93;70.92;100837.97;2184395;80;21047;-80
2022/06/11 04:03:54;;;;;;;7.72;5.25;;;;;;;15.76;70.26;100838.12;2182494;80;21008;-77
2022/06/11 04:06:59;;;;;;;11.22;5.28;;;;;;;16.32;69.72;100835.80;2183923;80;21042;-80
2022/06/11 04:10:01;;;;;;;6.83;5.20;;;;;;;16.84;68.93;100840.16;2189415;80;20958;-79
2022/06/11 04:13:02;;;;;;;8.43;5.42;;;;;;;17.41;68.05;100839.23;2189022;79;20963;-80
2022/06/11 04:16:04;;;;;;;10.70;5.60;;;;;;;17.77;67.39;100832.89;2182841;80;21522;-82
2022/06/11 04:19:08;;;;;;;8.55;4.85;;;;;;;18.30;67.11;100831.88;2182984;80;20978;-80
2022/06/11 04:22:10;;;;;;;10.13;6.60;;;;;;;18.99;66.41;100834.88;2182688;80;21063;-80
2022/06/11 04:25:18;;;;;;;7.80;5.40;;;;;;;19.34;64.74;100832.52;2187175;80;21058;-81
2022/06/11 04:28:19;;;;;;;10.58;5.15;;;;;;;19.62;64.38;100824.22;2163185;80;21032;-82
2022/06/11 04:31:20;;;;;;;6.55;5.95;;;;;;;20.06;63.83;100828.11;2181696;80;21012;-81
2022/06/11 04:34:22;;;;;;;9.33;6.22;;;;;;;20.35;62.89;100834.31;2187133;80;20962;-81
2022/06/11 04:37:28;;;;;;;7.37;6.08;;;;;;;20.66;61.91;100828.70;2182399;80;21075;-82
2022/06/11 04:40:29;;;;;;;7.12;5.62;;;;;;;20.74;61.38;100836.54;2187329;80;20982;-81
2022/06/11 04:43:32;;;;;;;8.50;5.92;;;;;;;20.93;60.69;100836.65;2189049;80;21006;-81
2022/06/11 04:46:34;;;;;;;11.80;6.30;;;;;;;21.31;60.74;100840.60;2184068;80;21564;-80
2022/06/11 04:49:38;;;;;;;7.85;5.78;;;;;;;21.61;60.19;100836.75;2197386;80;21015;-81
2022/06/11 04:52:39;;;;;;;10.15;6.37;;;;;;;22.07;59.77;100841.37;2181795;80;21023;-79
2022/06/11 04:55:40;;;;;;;8.75;6.20;;;;;;;22.49;58.84;100840.98;2170529;80;21436;-80
2022/06/11 04:58:42;;;;;;;7.80;6.17;;;;;;;22.70;57.45;100841.57;2171698;80;20964;-80
2022/06/11 05:01:44;;;;;;;6.72;5.78;;;;;;;22.98;57.36;100847.22;2173075;80;21443;-80
2022/06/11 05:04:45;;;;;;;11.75;6.97;;;;;;;23.11;56.00;100850.77;2172145;80;20970;-82
2022/06/11 05:07:47;;;;;;;6.78;6.00;;;;;;;23.12;56.27;100850.55;2147401;80;20999;-81
2022/06/11 05:10:48;;;;;;;9.93;5.97;;;;;;;23.24;55.52;100854.09;2175948;80;21058;-80
2022/06/11 05:13:49;;;;;;;6.83;5.97;;;;;;;23.42;55.41;100846.41;2165898;80;21107;-82
2022/06/11 05:16:51;;;;;;;10.78;6.00;;;;;;;23.67;54.83;100852.95;2147265;80;21083;-81
2022/06/11 05:19:53;;;;;;;6.65;5.95;;;;;;;23.89;54.54;100849.69;2171989;80;21422;-82
2022/06/11 05:22:54;;;;;;;8.20;5.85;;;;;;;24.28;54.14;100848.62;2170381;80;21517;-81
2022/06/11 05:25:55;;;;;;;9.50;7.45;;;;;;;24.48;52.98;100851.77;2165207;80;21019;-82
2022/06/11 05:28:56;;;;;;;10.48;7.78;;;;;;;24.59;52.40;100852.80;2154474;80;21000;-81
2022/06/11 05:32:00;;;;;;;9.03;8.05;;;;;;;24.59;52.24;100851.44;2183259;80;21018;-80
2022/06/11 05:35:07;;;;;;;12.78;7.67;;;;;;;24.66;51.88;100852.10;2152178;80;21473;-80
2022/06/11 05:38:13;;;;;;;9.10;8.20;;;;;;;24.94;51.87;100853.97;2169393;80;20995;-78
2022/06/11 05:41:14;;;;;;;8.60;7.35;;;;;;;25.30;51.49;100854.63;2174807;80;21044;-79
2022/06/11 05:44:16;;;;;;;8.25;7.03;;;;;;;25.46;51.08;100853.80;2178117;80;21071;-81
2022/06/11 05:47:21;;;;;;;7.95;7.15;;;;;;;25.77;50.75;100851.55;2168643;80;21495;-79
2022/06/11 05:50:30;;;;;;;6.97;6.33;;;;;;;26.00;50.22;100855.98;2172384;80;21009;-80
2022/06/11 05:53:35;;;;;;;10.25;6.33;;;;;;;26.04;49.69;100857.10;2174919;80;21580;-78
2022/06/11 05:56:38;;;;;;;10.25;6.67;;;;;;;26.22;49.34;100857.36;2167714;80;21325;-80
2022/06/11 05:59:45;;;;;;;7.70;6.05;;;;;;;26.36;49.11;100861.33;2188814;80;21026;-80
2022/06/11 06:02:48;;;;;;;10.38;5.72;;;;;;;26.39;48.59;100854.56;2184780;80;21660;-82
2022/06/11 06:05:49;;;;;;;5.83;4.65;;;;;;;26.47;48.33;100857.36;2185489;80;21574;-78
2022/06/11 06:08:51;;;;;;;8.18;4.40;;;;;;;26.35;48.31;100855.59;2187912;80;20986;-81
2022/06/11 06:11:53;;;;;;;5.33;4.67;;;;;;;26.50;48.19;100857.72;2190320;80;21617;-79
2022/06/11 06:15:09;;;;;;;4.95;3.45;;;;;;;26.97;48.01;100861.73;2185388;80;21003;-78
2022/06/11 06:18:11;;;;;;;3.55;3.17;;;;;;;27.15;46.59;100865.45;2182914;80;21643;-82
2022/06/11 06:21:13;;;;;;;5.47;3.80;;;;;;;27.21;46.36;100863.63;2188725;80;20988;-83
2022/06/11 06:24:17;;;;;;;4.10;3.30;;;;;;;27.57;46.08;100866.64;2183924;80;20996;-83
2022/06/11 06:27:24;;;;;;;3.45;3.00;;;;;;;27.78;45.70;100873.84;2181153;80;21565;-81
2022/06/11 06:30:25;;;;;;;3.83;2.85;;;;;;;27.76;44.65;100869.73;2186467;80;21495;-81
2022/06/11 06:33:30;;;;;;;6.55;3.10;;;;;;;27.86;44.59;100874.75;2185732;80;20976;-80
2022/06/11 06:36:43;;;;;;;3.75;3.12;;;;;;;27.99;44.41;100878.08;2186358;80;21030;-82
2022/06/11 06:39:42;;;;;;;6.15;3.30;;;;;;;28.11;43.92;100872.70;2186360;80;21524;-83
2022/06/11 06:42:43;;;;;;;7.83;3.10;;;;;;;28.13;43.32;100877.91;2183619;80;20985;-83
2022/06/11 06:45:45;;;;;;;7.12;4.17;;;;;;;28.29;43.31;100877.42;2187869;80;21014;-85
2022/06/11 06:48:47;;;;;;;3.10;2.80;;;;;;;28.22;42.84;100874.13;2188554;80;21045;-85
2022/06/11 06:51:48;;;;;;;5.20;3.37;;;;;;;28.31;42.67;100873.89;2192836;80;21003;-83
2022/06/11 06:54:50;;;;;;;2.95;2.67;;;;;;;28.40;42.08;100885.92;2192324;80;21006;-83
2022/06/11 06:57:52;;;;;;;4.55;3.10;;;;;;;28.48;41.98;100887.36;2183383;80;21005;-86
2022/06/11 07:00:53;;;;;;;3.75;2.87;;;;;;;28.53;41.50;100882.73;2185410;80;21490;-83
2022/06/11 07:03:55;;;;;;;2.72;2.47;;;;;;;28.43;41.50;100887.33;2182914;80;21027;-84
2022/06/11 07:07:22;;;;;;;3.55;2.87;;;;;;;28.37;41.05;100896.02;2186475;80;21012;-82
2022/06/11 07:10:26;;;;;;;3.87;2.80;;;;;;;28.28;41.08;100884.79;2189803;80;21577;-85
2022/06/11 07:13:29;;;;;;;6.60;3.10;;;;;;;28.05;40.92;100884.69;2184435;80;21050;-83
2022/06/11 07:16:37;;;;;;;8.85;3.10;;;;;;;28.11;40.71;100886.89;2182715;80;21009;-82
2022/06/11 07:19:56;;;;;;;3.87;2.50;;;;;;;28.09;40.62;100889.06;2185312;80;21027;-85
2022/06/11 07:23:08;;;;;;;4.72;2.50;;;;;;;28.04;40.51;100881.66;2152719;80;21477;-85
2022/06/11 07:26:14;;;;;;;2.77;2.40;;;;;;;28.21;40.85;100882.02;2184540;80;21491;-84
2022/06/11 07:29:23;;;;;;;3.50;2.55;;;;;;;28.45;40.86;100879.16;2187467;80;20943;-83
2022/06/11 07:32:35;;;;;;;4.30;2.52;;;;;;;28.63;41.22;100878.39;2184660;80;21039;-82
2022/06/11 07:35:42;;;;;;;6.10;2.12;;;;;;;29.04;40.86;100875.23;2183352;80;21068;-84
2022/06/11 07:39:02;;;;;;;4.15;3.00;;;;;;;29.38;40.50;100876.88;2183283;80;21365;-84
2022/06/11 07:42:03;;;;;;;3.05;2.62;;;;;;;29.67;38.62;100854.45;2185537;80;21031;-81
2022/06/11 07:45:08;;;;;;;4.12;2.40;;;;;;;29.67;38.62;100854.45;2189521;80;21084;-83
2022/06/11 07:48:13;;;;;;;3.05;2.15;;;;;;;29.81;38.33;100850.04;2181348;80;21005;-82
2022/06/11 07:51:19;;;;;;;3.85;2.50;;;;;;;29.81;38.33;100850.04;2187200;80;20988;-82
2022/06/11 07:54:19;;;;;;;4.12;2.40;;;;;;;29.94;37.82;100872.72;2180181;80;21020;-85
2022/06/11 07:57:22;;;;;;;3.55;2.40;;;;;;;29.92;37.40;100868.06;2185434;80;21587;-83
2022/06/11 08:00:29;;;;;;;5.17;2.45;;;;;;;29.98;37.81;100870.23;2185907;80;21289;-83
2022/06/11 08:03:31;;;;;;;3.27;2.30;;;;;;;30.27;37.21;100869.09;2189831;80;21007;-80
2022/06/11 08:06:33;;;;;;;4.17;2.05;;;;;;;30.30;36.90;100871.26;2186578;80;21007;-85
2022/06/11 08:09:37;;;;;;;2.15;1.90;;;;;;;30.53;35.91;100873.06;2185368;80;21031;-84
2022/06/11 08:12:40;;;;;;;4.65;2.10;;;;;;;30.56;35.86;100876.61;2184511;80;20994;-85
2022/06/11 08:15:49;;;;;;;2.00;1.70;;;;;;;30.64;35.92;100874.64;2187456;80;20983;-82
2022/06/11 08:18:50;;;;;;;2.92;1.57;;;;;;;30.92;35.71;100873.69;2187582;80;20981;-87
2022/06/11 08:21:55;;;;;;;4.15;1.92;;;;;;;30.73;34.76;100877.05;2184072;80;21348;-84
2022/06/11 08:24:56;;;;;;;3.40;1.70;;;;;;;30.85;34.43;100871.80;2181438;80;21010;-81
2022/06/11 08:27:58;;;;;;;4.08;2.22;;;;;;;30.82;34.29;100867.16;2186051;80;21050;-87
2022/06/11 08:31:07;;;;;;;2.80;1.62;;;;;;;30.92;33.24;100863.55;2184100;80;21011;-85
2022/06/11 08:34:12;;;;;;;5.90;1.80;;;;;;;30.66;33.47;100869.69;2183734;80;21501;-86
2022/06/11 08:37:14;;;;;;;4.95;1.60;;;;;;;30.39;33.94;100866.02;2191610;80;21067;-84
2022/06/11 08:40:36;;;;;;;1.82;1.50;;;;;;;30.57;33.34;100868.65;2186631;80;20975;-83
2022/06/11 08:43:51;;;;;;;4.03;1.85;;;;;;;29.98;32.98;100859.84;2181598;80;21052;-82
2022/06/11 08:46:55;;;;;;;1.87;1.62;;;;;;;29.32;33.23;100865.67;2168955;80;20992;-87
2022/06/11 08:50:04;;;;;;;3.67;1.85;;;;;;;28.81;33.46;100866.98;2169228;80;21478;-83
2022/06/11 08:53:06;;;;;;;4.85;1.70;;;;;;;28.34;33.15;100861.07;2188388;80;21475;-85
2022/06/11 08:56:19;;;;;;;2.62;1.98;;;;;;;28.06;33.66;100869.13;2194106;80;21015;-83
2022/06/11 08:59:49;;;;;;;3.52;1.70;;;;;;;27.74;33.88;100841.94;2194174;80;21013;-84
2022/06/11 09:03:16;;;;;;;2.52;1.70;;;;;;;27.94;34.57;100868.80;2197820;80;21695;-81
2022/06/11 09:06:29;;;;;;;2.67;1.98;;;;;;;28.20;34.24;100877.11;2196568;80;21079;-84
2022/06/11 09:10:04;;;;;;;3.60;1.85;;;;;;;28.31;33.61;100869.80;2194182;80;21624;-85
2022/06/11 09:13:29;;;;;;;4.35;2.05;;;;;;;28.64;34.74;100864.48;2197113;80;20979;-84
2022/06/11 09:17:08;;;;;;;4.03;1.60;;;;;;;29.03;34.47;100870.84;2196820;80;21002;-86
2022/06/11 09:20:15;;;;;;;4.10;1.60;;;;;;;28.95;33.74;100857.72;2196932;80;20958;-83
2022/06/11 09:23:47;;;;;;;4.72;2.10;;;;;;;28.99;33.63;100856.06;2190397;80;21067;-81
2022/06/11 09:27:11;;;;;;;3.02;1.82;;;;;;;29.13;33.39;100846.82;2202089;80;21875;-84
2022/06/11 09:30:24;;;;;;;4.05;1.70;;;;;;;29.31;33.53;100841.34;2196829;80;21058;-81
2022/06/11 09:33:36;;;;;;;3.72;1.55;;;;;;;29.56;33.47;100843.23;2189713;80;21015;-83
2022/06/11 09:36:42;;;;;;;2.20;1.70;;;;;;;29.60;32.96;100838.86;2181664;80;21086;-85
2022/06/11 09:40:24;;;;;;;6.35;1.80;;;;;;;29.54;32.97;100837.20;2200094;80;21636;-83
2022/06/11 09:44:09;;;;;;;2.42;1.62;;;;;;;29.44;33.33;100837.50;2138001;81;21625;-81
2022/06/11 09:48:06;;;;;;;3.33;2.05;;;;;;;29.26;32.13;100806.11;2105065;81;21046;-82
2022/06/11 09:51:28;;;;;;;2.72;1.87;;;;;;;29.27;33.11;100836.98;2140367;81;21050;-84
2022/06/11 09:55:01;;;;;;;3.15;1.85;;;;;;;28.24;32.81;100791.45;2126385;81;21532;-82
2022/06/11 09:58:31;;;;;;;3.33;1.90;;;;;;;28.28;33.11;100831.58;2138979;81;21047;-84
2022/06/11 10:01:43;;;;;;;4.60;2.15;;;;;;;28.67;33.17;100819.45;2131839;81;21348;-83
2022/06/11 10:04:48;;;;;;;4.60;1.70;;;;;;;28.18;33.71;100819.26;2129472;81;21010;-83
2022/06/11 10:08:05;;;;;;;4.55;2.00;;;;;;;28.18;33.71;100819.26;2127558;81;21514;-85
2022/06/11 10:11:28;;;;;;;3.10;1.95;;;;;;;28.46;33.86;100818.56;2137818;81;20995;-80
2022/06/11 10:14:29;;;;;;;3.52;2.00;;;;;;;28.02;32.28;100818.39;2130706;81;21018;-82
2022/06/11 10:17:55;;;;;;;3.75;2.02;;;;;;;27.21;33.64;100825.48;2129744;81;21014;-80
2022/06/11 10:21:09;;;;;;;5.25;1.85;;;;;;;27.29;34.46;100823.65;2132765;81;21050;-83
2022/06/11 10:24:20;;;;;;;3.05;2.10;;;;;;;27.27;34.79;100829.34;2135138;81;21468;-84
2022/06/11 10:27:24;;;;;;;2.12;1.65;;;;;;;27.46;34.65;100819.41;2133319;80;21031;-85
2022/06/11 10:30:50;;;;;;;3.33;1.70;;;;;;;27.98;34.88;100816.45;2134026;81;21011;-83
2022/06/11 10:48:06;;;;;;;2.55;1.70;;;;;;;28.85;34.69;100810.72;2222710;78;22362;-75
2022/06/11 10:51:22;;;;;;;2.47;1.67;;;;;;;28.72;34.61;100804.41;2185723;80;21602;-75
2022/06/11 10:54:26;;;;;;;4.20;1.80;;;;;;;27.76;33.29;100807.85;2175762;80;21600;-75
2022/06/11 10:57:30;;;;;;;7.20;3.00;;;;;;;27.11;34.35;100803.03;2172030;80;21023;-75
2022/06/11 11:00:43;;;;;;;3.25;1.80;;;;;;;26.38;34.81;100803.42;2181452;80;20955;-75
2022/06/11 11:03:58;;;;;;;3.22;1.85;;;;;;;25.54;35.45;100800.11;2170008;80;21028;-75
2022/06/11 11:07:20;;;;;;;4.95;1.85;;;;;;;25.69;36.74;100797.62;2139989;80;21024;-75
2022/06/11 11:10:24;;;;;;;;;;;;;;;26.02;36.24;100791.84;2175013;80;21043;-75
2022/06/11 11:13:42;;;;;;;3.40;1.65;;;;;;;26.23;36.29;100786.09;2177263;80;20142;-76
2022/06/11 11:16:53;;;;;;;4.20;2.02;;;;;;;26.62;35.85;100786.00;2176507;80;21072;-76
2022/06/11 11:20:30;;;;;;;1.70;1.60;;;;;;;26.78;35.17;100779.08;2179682;80;21016;-76
2022/06/11 11:23:41;;;;;;;5.15;1.90;;;;;;;26.81;35.61;100779.92;2179046;80;20996;-76
2022/06/11 11:27:11;;;;;;;4.45;1.80;;;;;;;27.33;35.41;100779.80;2175291;80;21053;-76
2022/06/11 11:30:21;;;;;;;5.20;1.45;;;;;;;27.22;34.25;100778.91;2177843;80;21047;-77
2022/06/11 11:33:27;;;;;;;2.65;1.87;;;;;;;26.71;34.28;100773.02;2181794;80;21103;-75
2022/06/11 11:37:15;;;;;;;3.25;1.98;;;;;;;26.45;35.50;100773.83;2227876;80;21028;-74
2022/06/11 11:40:28;;;;;;;2.65;1.57;;;;;;;26.63;35.64;100770.76;2171176;80;21018;-74
2022/06/11 11:48:11;;;;;;;5.22;1.80;;;;;;;26.67;35.81;100764.28;2134060;83;21975;-75
2022/06/11 11:51:31;;;;;;;2.25;1.52;;;;;;;26.38;35.76;100762.61;2170954;80;21325;-75
2022/06/11 11:54:34;;;;;;;4.58;1.85;;;;;;;26.38;35.76;100762.61;2139024;80;21008;-75
2022/06/11 11:57:39;;;;;;;3.47;1.92;;;;;;;26.15;35.67;100756.08;2173128;80;20980;-75
2022/06/11 12:00:57;;;;;;;3.02;1.67;;;;;;;25.98;35.45;100755.34;2145089;82;21021;-75
2022/06/11 12:04:13;;;;;;;5.03;1.50;;;;;;;26.14;35.81;100757.17;2136018;80;21006;-77
2022/06/11 12:07:33;;;;;;;6.17;2.17;;;;;;;26.46;36.30;100757.77;2159613;80;21061;-76
2022/06/11 12:10:42;;;;;;;4.00;1.62;;;;;;;26.82;35.87;100756.23;2159917;80;20997;-76
2022/06/11 12:13:48;;;;;;;3.00;1.50;;;;;;;26.99;35.96;100754.73;2166064;80;21075;-75
2022/06/11 12:16:54;;;;;;;2.77;1.60;;;;;;;27.35;35.65;100757.75;2170373;80;21527;-76
2022/06/11 12:20:00;;;;;;;3.25;1.60;;;;;;;27.72;35.48;100753.59;2138204;80;21334;-80
2022/06/11 12:23:42;;;;;;;3.00;1.70;;;;;;;27.98;35.36;100753.73;2149093;80;21492;-76
2022/06/11 12:26:48;;;;;;;3.50;1.60;;;;;;;28.20;34.85;100743.98;2152431;80;21020;-77
2022/06/11 12:29:55;;;;;;;3.60;1.52;;;;;;;28.29;34.42;100747.81;2162724;80;21060;-76
2022/06/11 12:33:01;;;;;;;3.67;1.70;;;;;;;27.67;34.04;100747.56;2152517;80;21029;-74
2022/06/11 12:36:14;;;;;;;3.00;1.80;;;;;;;27.64;34.50;100749.45;2160277;80;21084;-80
2022/06/11 12:39:48;;;;;;;2.05;1.47;;;;;;;27.51;34.72;100748.59;2169766;80;20994;-75
2022/06/11 12:43:26;;;;;;;2.42;1.98;;;;;;;27.54;34.81;100744.49;2069083;80;21052;-75
2022/06/11 12:46:37;;;;;;;10.58;4.28;;;;;;;27.50;34.67;100745.57;2151256;80;21088;-77
2022/06/11 12:49:59;;;;;;;3.47;1.52;;;;;;;27.15;34.49;100746.16;2165015;80;21575;-75
2022/06/11 12:53:34;;;;;;;3.10;1.82;;;;;;;27.05;34.58;100741.44;2157095;80;20968;-74
2022/06/11 12:57:02;;;;;;;3.30;1.42;;;;;;;27.15;34.79;100744.25;2157419;80;21077;-74
2022/06/11 13:00:11;;;;;;;2.50;1.35;;;;;;;26.81;34.24;100741.81;2152480;80;20999;-74
2022/06/11 13:03:25;;;;;;;3.37;1.70;;;;;;;26.54;35.01;100736.39;2160340;80;21022;-76
2022/06/11 13:07:24;;;;;;;4.03;1.37;;;;;;;26.61;35.19;100733.48;2157488;80;21148;-78
2022/06/11 13:10:40;;;;;;;3.02;1.22;;;;;;;26.89;34.62;100732.35;2150630;80;20993;-79
2022/06/11 13:14:15;;;;;;;3.50;1.32;;;;;;;26.98;34.52;100729.97;2154602;80;21048;-86
2022/06/11 13:17:35;;;;;;;2.58;1.50;;;;;;;27.04;34.16;100728.91;2157099;80;20991;-75
2022/06/11 13:21:15;;;;;;;6.15;1.80;;;;;;;27.20;34.42;100730.70;2153985;80;21831;-81
2022/06/11 13:24:43;;;;;;;2.95;1.37;;;;;;;27.29;33.53;100724.22;2149150;80;21868;-76
2022/06/11 13:28:08;;;;;;;2.40;1.10;;;;;;;27.01;34.22;100718.00;2140587;80;21056;-82
2022/06/11 13:31:39;;;;;;;2.75;1.40;;;;;;;26.86;34.24;100719.23;2149510;80;21071;-81
2022/06/11 13:34:51;;;;;;;1.42;1.05;;;;;;;26.96;34.26;100720.68;2158648;80;21050;-81
2022/06/11 13:38:03;;;;;;;2.80;1.40;;;;;;;27.18;34.01;100717.88;2123451;80;21079;-79
2022/06/11 13:41:12;;;;;;;1.80;1.25;;;;;;;27.02;34.47;100719.63;2120614;82;20960;-80
2022/06/11 13:44:28;;;;;;;5.70;1.60;;;;;;;26.61;33.78;100707.63;2116811;82;21029;-78
2022/06/11 13:47:55;;;;;;;2.83;1.50;;;;;;;26.13;33.95;100709.31;2118379;82;21381;-79
2022/06/11 13:51:11;;;;;;;3.77;1.37;;;;;;;25.82;34.69;100713.01;2078159;83;21074;-78
2022/06/11 13:57:57;;;;;;;2.25;1.22;;;;;;;25.69;35.16;100705.23;2077776;83;21042;-77
2022/06/11 14:01:19;;;;;;;2.08;1.65;;;;;;;25.70;35.61;100701.42;2065509;84;21885;-77
2022/06/11 14:04:37;;;;;;;3.75;1.40;;;;;;;25.91;35.44;100705.26;2074024;84;21014;-83
2022/06/11 14:07:42;;;;;;;2.52;1.20;;;;;;;26.05;35.08;100701.06;2073905;84;21144;-78
2022/06/11 14:10:52;;;;;;;2.77;1.40;;;;;;;25.98;35.39;100688.19;2080581;84;21068;-79
2022/06/11 14:14:01;;;;;;;8.43;2.95;;;;;;;26.02;35.46;100686.62;2082271;84;21455;-78
2022/06/11 14:17:06;;;;;;;7.85;4.40;;;;;;;26.02;36.36;100689.34;2079729;84;21040;-78
2022/06/11 14:20:35;;;;;;;4.20;2.37;;;;;;;26.19;36.94;100688.43;2079689;84;20962;-83
2022/06/11 14:23:42;;;;;;;5.67;1.98;;;;;;;26.38;36.24;100683.72;2077830;84;21061;-84
2022/06/11 14:26:52;;;;;;;3.27;1.77;;;;;;;26.61;36.56;100672.25;2082337;84;20983;-77
2022/06/11 14:30:17;;;;;;;6.47;1.87;;;;;;;26.79;35.73;100675.09;2080927;84;21117;-83
2022/06/11 14:33:23;;;;;;;2.33;1.62;;;;;;;26.81;35.61;100678.39;2073502;83;21002;-88
2022/06/11 14:36:27;;;;;;;3.40;1.40;;;;;;;26.66;35.90;100673.63;2081297;83;20991;-84
2022/06/11 14:39:33;;;;;;;2.40;1.37;;;;;;;26.50;35.55;100672.70;2080540;83;21051;-82
2022/06/11 14:43:00;;;;;;;3.60;1.50;;;;;;;26.33;35.35;100671.43;2079910;83;21011;-80
2022/06/11 14:46:02;;;;;;;1.77;1.07;;;;;;;26.22;35.47;100665.61;2079732;84;21011;-79
2022/06/11 14:49:13;;;;;;;2.42;1.17;;;;;;;26.10;35.57;100664.41;2079954;83;20985;-77
2022/06/11 14:52:24;;;;;;;2.50;1.07;;;;;;;26.22;35.06;100660.72;2077070;83;20961;-79
2022/06/11 14:55:30;;;;;;;3.85;1.40;;;;;;;26.31;34.59;100665.42;2060421;83;21038;-81
2022/06/11 14:59:10;;;;;;;3.12;1.57;;;;;;;26.33;34.97;100657.83;2081202;83;20982;-79
2022/06/11 15:03:09;;;;;;;1.35;1.25;;;;;;;26.21;34.98;100658.52;2078394;83;21020;-78
2022/06/11 15:06:45;;;;;;;1.70;1.40;;;;;;;25.85;34.43;100654.09;2083618;83;21041;-78
2022/06/11 15:10:04;;;;;;;2.87;1.20;;;;;;;25.45;35.43;100653.02;2084396;83;21126;-77
2022/06/11 15:13:36;;;;;;;3.85;1.32;;;;;;;25.41;35.99;100655.42;2085463;83;21025;-78
2022/06/11 15:16:43;;;;;;;2.65;1.50;;;;;;;25.46;35.59;100651.42;2073851;83;21550;-78